sensor_id;sensor_type;location;lat;lon;timestamp;P1;durP1;ratioP1;P2;durP2;ratioP2
22603;SDS011;11469;49.024;8.246;2022-12-28T00:02:08;33.75;;;17.40;;
22603;SDS011;11469;49.024;8.246;2022-12-28T00:04:33;35.05;;;19.55;;
22603;SDS011;11469;49.024;8.246;2022-12-28T00:06:59;30.88;;;17.85;;
22603;SDS011;11469;49.024;8.246;2022-12-28T00:09:24;31.73;;;17.38;;
22603;SDS011;11469;49.024;8.246;2022-12-28T00:11:49;32.97;;;16.98;;
22603;SDS011;11469;49.024;8.246;2022-12-28T00:14:15;36.47;;;17.08;;
22603;SDS011;11469;49.024;8.246;2022-12-28T00:16:40;36.60;;;18.10;;
22603;SDS011;11469;49.024;8.246;2022-12-28T00:19:09;33.58;;;16.92;;
22603;SDS011;11469;49.024;8.246;2022-12-28T00:21:36;32.53;;;15.80;;
22603;SDS011;11469;49.024;8.246;2022-12-28T00:24:02;32.97;;;15.63;;
22603;SDS011;11469;49.024;8.246;2022-12-28T00:26:29;28.60;;;15.20;;
22603;SDS011;11469;49.024;8.246;2022-12-28T00:28:56;27.40;;;15.43;;
22603;SDS011;11469;49.024;8.246;2022-12-28T00:31:22;30.50;;;16.17;;
22603;SDS011;11469;49.024;8.246;2022-12-28T00:33:47;30.02;;;16.00;;
22603;SDS011;11469;49.024;8.246;2022-12-28T00:36:13;39.67;;;16.85;;
22603;SDS011;11469;49.024;8.246;2022-12-28T00:38:41;28.75;;;15.88;;
22603;SDS011;11469;49.024;8.246;2022-12-28T00:41:08;33.45;;;16.27;;
22603;SDS011;11469;49.024;8.246;2022-12-28T00:43:34;31.58;;;18.13;;
22603;SDS011;11469;49.024;8.246;2022-12-28T00:46:00;32.70;;;17.60;;
22603;SDS011;11469;49.024;8.246;2022-12-28T00:48:27;31.52;;;16.45;;
22603;SDS011;11469;49.024;8.246;2022-12-28T00:50:55;33.63;;;16.90;;
22603;SDS011;11469;49.024;8.246;2022-12-28T00:53:27;33.67;;;17.48;;
22603;SDS011;11469;49.024;8.246;2022-12-28T00:55:53;30.67;;;16.30;;
22603;SDS011;11469;49.024;8.246;2022-12-28T00:58:18;28.30;;;15.38;;
22603;SDS011;11469;49.024;8.246;2022-12-28T01:00:44;31.70;;;16.27;;
22603;SDS011;11469;49.024;8.246;2022-12-28T01:03:09;34.13;;;16.23;;
22603;SDS011;11469;49.024;8.246;2022-12-28T01:05:37;34.40;;;16.88;;
22603;SDS011;11469;49.024;8.246;2022-12-28T01:08:04;28.77;;;15.70;;
22603;SDS011;11469;49.024;8.246;2022-12-28T01:10:29;35.00;;;15.88;;
22603;SDS011;11469;49.024;8.246;2022-12-28T01:12:55;29.58;;;15.38;;
22603;SDS011;11469;49.024;8.246;2022-12-28T01:15:20;34.83;;;17.35;;
22603;SDS011;11469;49.024;8.246;2022-12-28T01:17:45;32.83;;;17.50;;
22603;SDS011;11469;49.024;8.246;2022-12-28T01:20:11;39.47;;;16.02;;
22603;SDS011;11469;49.024;8.246;2022-12-28T01:22:36;35.05;;;16.70;;
22603;SDS011;11469;49.024;8.246;2022-12-28T01:25:02;30.23;;;16.00;;
22603;SDS011;11469;49.024;8.246;2022-12-28T01:27:27;27.50;;;15.23;;
22603;SDS011;11469;49.024;8.246;2022-12-28T01:29:53;37.20;;;16.58;;
22603;SDS011;11469;49.024;8.246;2022-12-28T01:32:18;30.20;;;15.75;;
22603;SDS011;11469;49.024;8.246;2022-12-28T01:34:43;27.17;;;14.65;;
22603;SDS011;11469;49.024;8.246;2022-12-28T01:37:10;27.83;;;15.77;;
22603;SDS011;11469;49.024;8.246;2022-12-28T01:39:36;29.33;;;14.65;;
22603;SDS011;11469;49.024;8.246;2022-12-28T01:42:01;29.23;;;14.55;;
22603;SDS011;11469;49.024;8.246;2022-12-28T01:44:38;29.25;;;14.73;;
22603;SDS011;11469;49.024;8.246;2022-12-28T01:47:08;27.40;;;13.70;;
22603;SDS011;11469;49.024;8.246;2022-12-28T01:52:09;39.78;;;15.65;;
22603;SDS011;11469;49.024;8.246;2022-12-28T01:55:24;27.67;;;12.95;;
22603;SDS011;11469;49.024;8.246;2022-12-28T01:57:47;25.98;;;12.07;;
22603;SDS011;11469;49.024;8.246;2022-12-28T02:00:18;26.13;;;11.38;;
22603;SDS011;11469;49.024;8.246;2022-12-28T02:02:49;25.05;;;10.10;;
22603;SDS011;11469;49.024;8.246;2022-12-28T02:05:21;16.90;;;8.85;;
22603;SDS011;11469;49.024;8.246;2022-12-28T02:08:25;17.55;;;8.57;;
22603;SDS011;11469;49.024;8.246;2022-12-28T02:10:45;17.40;;;8.67;;
22603;SDS011;11469;49.024;8.246;2022-12-28T02:13:13;15.77;;;6.63;;
22603;SDS011;11469;49.024;8.246;2022-12-28T02:15:39;14.13;;;6.57;;
22603;SDS011;11469;49.024;8.246;2022-12-28T02:18:05;11.90;;;6.35;;
22603;SDS011;11469;49.024;8.246;2022-12-28T02:20:38;13.35;;;5.70;;
22603;SDS011;11469;49.024;8.246;2022-12-28T02:23:49;10.70;;;5.25;;
22603;SDS011;11469;49.024;8.246;2022-12-28T02:38:00;8.45;;;3.88;;
22603;SDS011;11469;49.024;8.246;2022-12-28T02:40:40;13.55;;;3.55;;
22603;SDS011;11469;49.024;8.246;2022-12-28T02:43:11;5.82;;;3.25;;
22603;SDS011;11469;49.024;8.246;2022-12-28T02:48:23;6.72;;;3.20;;
22603;SDS011;11469;49.024;8.246;2022-12-28T02:51:14;9.07;;;2.80;;
22603;SDS011;11469;49.024;8.246;2022-12-28T02:56:40;7.18;;;3.00;;
22603;SDS011;11469;49.024;8.246;2022-12-28T02:59:39;5.40;;;2.65;;
22603;SDS011;11469;49.024;8.246;2022-12-28T03:02:33;8.35;;;2.67;;
22603;SDS011;11469;49.024;8.246;2022-12-28T03:07:46;5.65;;;2.15;;
22603;SDS011;11469;49.024;8.246;2022-12-28T03:10:45;6.57;;;2.28;;
22603;SDS011;11469;49.024;8.246;2022-12-28T03:16:31;5.97;;;2.45;;
22603;SDS011;11469;49.024;8.246;2022-12-28T03:19:20;5.15;;;2.10;;
22603;SDS011;11469;49.024;8.246;2022-12-28T03:22:09;6.57;;;1.90;;
22603;SDS011;11469;49.024;8.246;2022-12-28T03:24:55;5.30;;;1.80;;
22603;SDS011;11469;49.024;8.246;2022-12-28T03:27:43;2.60;;;1.90;;
22603;SDS011;11469;49.024;8.246;2022-12-28T03:30:29;4.57;;;1.73;;
22603;SDS011;11469;49.024;8.246;2022-12-28T03:33:16;6.70;;;1.98;;
22603;SDS011;11469;49.024;8.246;2022-12-28T03:36:27;4.25;;;1.58;;
22603;SDS011;11469;49.024;8.246;2022-12-28T03:39:48;8.02;;;1.73;;
22603;SDS011;11469;49.024;8.246;2022-12-28T03:42:17;6.53;;;1.75;;
22603;SDS011;11469;49.024;8.246;2022-12-28T03:45:15;5.05;;;1.25;;
22603;SDS011;11469;49.024;8.246;2022-12-28T03:47:46;2.17;;;1.25;;
22603;SDS011;11469;49.024;8.246;2022-12-28T03:50:15;5.45;;;1.83;;
22603;SDS011;11469;49.024;8.246;2022-12-28T03:52:41;5.47;;;1.63;;
22603;SDS011;11469;49.024;8.246;2022-12-28T03:55:07;7.78;;;1.63;;
22603;SDS011;11469;49.024;8.246;2022-12-28T03:57:34;4.28;;;1.48;;
22603;SDS011;11469;49.024;8.246;2022-12-28T04:00:00;4.13;;;1.70;;
22603;SDS011;11469;49.024;8.246;2022-12-28T04:02:25;6.75;;;1.65;;
22603;SDS011;11469;49.024;8.246;2022-12-28T04:04:50;2.25;;;1.35;;
22603;SDS011;11469;49.024;8.246;2022-12-28T04:07:16;5.90;;;1.40;;
22603;SDS011;11469;49.024;8.246;2022-12-28T04:09:41;4.57;;;1.58;;
22603;SDS011;11469;49.024;8.246;2022-12-28T04:12:08;3.38;;;1.40;;
22603;SDS011;11469;49.024;8.246;2022-12-28T04:14:33;4.72;;;1.80;;
22603;SDS011;11469;49.024;8.246;2022-12-28T04:16:59;4.63;;;1.27;;
22603;SDS011;11469;49.024;8.246;2022-12-28T04:19:24;7.45;;;1.20;;
22603;SDS011;11469;49.024;8.246;2022-12-28T04:21:49;2.65;;;1.08;;
22603;SDS011;11469;49.024;8.246;2022-12-28T04:24:15;4.00;;;1.45;;
22603;SDS011;11469;49.024;8.246;2022-12-28T04:26:40;6.35;;;1.45;;
22603;SDS011;11469;49.024;8.246;2022-12-28T04:29:05;7.53;;;1.50;;
22603;SDS011;11469;49.024;8.246;2022-12-28T04:31:31;5.38;;;1.45;;
22603;SDS011;11469;49.024;8.246;2022-12-28T04:33:57;3.10;;;1.23;;
22603;SDS011;11469;49.024;8.246;2022-12-28T04:36:22;2.35;;;1.17;;
22603;SDS011;11469;49.024;8.246;2022-12-28T04:38:49;4.03;;;1.10;;
22603;SDS011;11469;49.024;8.246;2022-12-28T04:41:16;3.30;;;1.38;;
22603;SDS011;11469;49.024;8.246;2022-12-28T04:43:42;5.50;;;1.40;;
22603;SDS011;11469;49.024;8.246;2022-12-28T04:46:11;5.57;;;1.30;;
22603;SDS011;11469;49.024;8.246;2022-12-28T04:48:39;5.45;;;1.40;;
22603;SDS011;11469;49.024;8.246;2022-12-28T04:51:24;3.15;;;1.27;;
22603;SDS011;11469;49.024;8.246;2022-12-28T04:53:51;4.50;;;1.40;;
22603;SDS011;11469;49.024;8.246;2022-12-28T04:56:17;2.88;;;1.15;;
22603;SDS011;11469;49.024;8.246;2022-12-28T04:58:44;4.03;;;1.00;;
22603;SDS011;11469;49.024;8.246;2022-12-28T05:01:17;2.63;;;1.23;;
22603;SDS011;11469;49.024;8.246;2022-12-28T05:03:44;2.90;;;1.20;;
22603;SDS011;11469;49.024;8.246;2022-12-28T05:06:11;4.82;;;1.58;;
22603;SDS011;11469;49.024;8.246;2022-12-28T05:08:38;3.13;;;1.10;;
22603;SDS011;11469;49.024;8.246;2022-12-28T05:11:06;3.00;;;0.95;;
22603;SDS011;11469;49.024;8.246;2022-12-28T05:13:33;3.47;;;1.17;;
22603;SDS011;11469;49.024;8.246;2022-12-28T05:16:04;6.95;;;1.17;;
22603;SDS011;11469;49.024;8.246;2022-12-28T05:18:31;3.22;;;1.00;;
22603;SDS011;11469;49.024;8.246;2022-12-28T05:21:04;5.97;;;1.63;;
22603;SDS011;11469;49.024;8.246;2022-12-28T05:23:40;2.33;;;1.00;;
22603;SDS011;11469;49.024;8.246;2022-12-28T05:26:06;4.10;;;0.93;;
22603;SDS011;11469;49.024;8.246;2022-12-28T05:28:35;3.10;;;1.25;;
22603;SDS011;11469;49.024;8.246;2022-12-28T05:31:02;3.28;;;1.08;;
22603;SDS011;11469;49.024;8.246;2022-12-28T05:33:29;2.40;;;1.10;;
22603;SDS011;11469;49.024;8.246;2022-12-28T05:36:04;4.85;;;1.05;;
22603;SDS011;11469;49.024;8.246;2022-12-28T05:38:30;7.18;;;1.33;;
22603;SDS011;11469;49.024;8.246;2022-12-28T05:41:02;4.20;;;1.52;;
22603;SDS011;11469;49.024;8.246;2022-12-28T05:43:31;3.35;;;1.42;;
22603;SDS011;11469;49.024;8.246;2022-12-28T05:46:01;3.70;;;1.08;;
22603;SDS011;11469;49.024;8.246;2022-12-28T05:48:31;4.45;;;1.23;;
22603;SDS011;11469;49.024;8.246;2022-12-28T05:50:59;4.07;;;0.73;;
22603;SDS011;11469;49.024;8.246;2022-12-28T05:53:30;4.45;;;1.08;;
22603;SDS011;11469;49.024;8.246;2022-12-28T05:56:06;3.17;;;1.20;;
22603;SDS011;11469;49.024;8.246;2022-12-28T05:58:41;4.43;;;1.17;;
22603;SDS011;11469;49.024;8.246;2022-12-28T06:01:08;3.33;;;1.02;;
22603;SDS011;11469;49.024;8.246;2022-12-28T06:03:35;2.65;;;1.00;;
22603;SDS011;11469;49.024;8.246;2022-12-28T06:06:05;2.38;;;0.90;;
22603;SDS011;11469;49.024;8.246;2022-12-28T06:08:36;2.22;;;0.82;;
22603;SDS011;11469;49.024;8.246;2022-12-28T06:11:03;5.93;;;1.02;;
22603;SDS011;11469;49.024;8.246;2022-12-28T06:13:31;3.45;;;0.98;;
22603;SDS011;11469;49.024;8.246;2022-12-28T06:15:57;2.08;;;0.85;;
22603;SDS011;11469;49.024;8.246;2022-12-28T06:18:23;5.07;;;0.90;;
22603;SDS011;11469;49.024;8.246;2022-12-28T06:20:53;6.10;;;0.98;;
22603;SDS011;11469;49.024;8.246;2022-12-28T06:23:19;4.88;;;1.42;;
22603;SDS011;11469;49.024;8.246;2022-12-28T06:25:45;3.47;;;0.80;;
22603;SDS011;11469;49.024;8.246;2022-12-28T06:28:10;1.85;;;0.98;;
22603;SDS011;11469;49.024;8.246;2022-12-28T06:30:35;4.95;;;1.23;;
22603;SDS011;11469;49.024;8.246;2022-12-28T06:33:01;6.07;;;0.93;;
22603;SDS011;11469;49.024;8.246;2022-12-28T06:35:26;5.90;;;1.20;;
22603;SDS011;11469;49.024;8.246;2022-12-28T06:37:51;5.10;;;1.25;;
22603;SDS011;11469;49.024;8.246;2022-12-28T06:40:17;3.70;;;0.98;;
22603;SDS011;11469;49.024;8.246;2022-12-28T06:42:42;2.13;;;0.80;;
22603;SDS011;11469;49.024;8.246;2022-12-28T06:45:08;8.73;;;1.17;;
22603;SDS011;11469;49.024;8.246;2022-12-28T06:47:33;6.85;;;1.30;;
22603;SDS011;11469;49.024;8.246;2022-12-28T06:50:01;4.55;;;1.02;;
22603;SDS011;11469;49.024;8.246;2022-12-28T06:52:27;3.42;;;1.08;;
22603;SDS011;11469;49.024;8.246;2022-12-28T06:54:52;9.70;;;1.08;;
22603;SDS011;11469;49.024;8.246;2022-12-28T06:57:17;1.80;;;0.95;;
22603;SDS011;11469;49.024;8.246;2022-12-28T06:59:43;6.57;;;1.00;;
22603;SDS011;11469;49.024;8.246;2022-12-28T07:02:09;3.67;;;0.70;;
22603;SDS011;11469;49.024;8.246;2022-12-28T07:04:34;4.32;;;1.10;;
22603;SDS011;11469;49.024;8.246;2022-12-28T07:07:00;5.65;;;0.90;;
22603;SDS011;11469;49.024;8.246;2022-12-28T07:09:25;3.45;;;0.73;;
22603;SDS011;11469;49.024;8.246;2022-12-28T07:11:50;6.55;;;1.05;;
22603;SDS011;11469;49.024;8.246;2022-12-28T07:14:16;3.67;;;1.20;;
22603;SDS011;11469;49.024;8.246;2022-12-28T07:16:41;6.53;;;0.65;;
22603;SDS011;11469;49.024;8.246;2022-12-28T07:19:07;4.50;;;0.80;;
22603;SDS011;11469;49.024;8.246;2022-12-28T07:21:33;4.22;;;1.10;;
22603;SDS011;11469;49.024;8.246;2022-12-28T07:24:00;4.32;;;1.30;;
22603;SDS011;11469;49.024;8.246;2022-12-28T07:26:30;1.83;;;0.82;;
22603;SDS011;11469;49.024;8.246;2022-12-28T07:28:58;6.95;;;1.30;;
22603;SDS011;11469;49.024;8.246;2022-12-28T07:31:26;4.82;;;1.10;;
22603;SDS011;11469;49.024;8.246;2022-12-28T07:33:56;1.67;;;0.80;;
22603;SDS011;11469;49.024;8.246;2022-12-28T07:36:23;3.45;;;1.17;;
22603;SDS011;11469;49.024;8.246;2022-12-28T07:38:50;8.32;;;1.10;;
22603;SDS011;11469;49.024;8.246;2022-12-28T07:41:19;3.08;;;0.95;;
22603;SDS011;11469;49.024;8.246;2022-12-28T07:43:46;5.57;;;0.90;;
22603;SDS011;11469;49.024;8.246;2022-12-28T07:46:13;5.80;;;1.35;;
22603;SDS011;11469;49.024;8.246;2022-12-28T07:48:41;5.45;;;1.23;;
22603;SDS011;11469;49.024;8.246;2022-12-28T07:51:17;3.65;;;1.00;;
22603;SDS011;11469;49.024;8.246;2022-12-28T07:53:46;6.63;;;1.17;;
22603;SDS011;11469;49.024;8.246;2022-12-28T07:56:13;4.63;;;0.98;;
22603;SDS011;11469;49.024;8.246;2022-12-28T07:58:39;3.45;;;1.00;;
22603;SDS011;11469;49.024;8.246;2022-12-28T08:01:05;6.00;;;0.85;;
22603;SDS011;11469;49.024;8.246;2022-12-28T08:03:32;5.75;;;0.93;;
22603;SDS011;11469;49.024;8.246;2022-12-28T08:06:02;9.70;;;1.27;;
22603;SDS011;11469;49.024;8.246;2022-12-28T08:08:32;7.75;;;1.35;;
22603;SDS011;11469;49.024;8.246;2022-12-28T08:11:05;3.40;;;0.73;;
22603;SDS011;11469;49.024;8.246;2022-12-28T08:13:37;3.42;;;0.90;;
22603;SDS011;11469;49.024;8.246;2022-12-28T08:16:04;3.58;;;0.88;;
22603;SDS011;11469;49.024;8.246;2022-12-28T08:18:31;2.45;;;1.10;;
22603;SDS011;11469;49.024;8.246;2022-12-28T08:21:01;2.65;;;1.08;;
22603;SDS011;11469;49.024;8.246;2022-12-28T08:23:28;2.85;;;0.85;;
22603;SDS011;11469;49.024;8.246;2022-12-28T08:25:54;3.33;;;1.05;;
22603;SDS011;11469;49.024;8.246;2022-12-28T08:28:19;3.33;;;0.82;;
22603;SDS011;11469;49.024;8.246;2022-12-28T08:30:45;4.55;;;1.00;;
22603;SDS011;11469;49.024;8.246;2022-12-28T08:33:10;4.47;;;1.10;;
22603;SDS011;11469;49.024;8.246;2022-12-28T08:35:35;5.65;;;0.85;;
22603;SDS011;11469;49.024;8.246;2022-12-28T08:38:01;6.15;;;1.00;;
22603;SDS011;11469;49.024;8.246;2022-12-28T08:40:26;4.60;;;0.90;;
22603;SDS011;11469;49.024;8.246;2022-12-28T08:42:59;11.25;;;1.17;;
22603;SDS011;11469;49.024;8.246;2022-12-28T08:45:26;5.05;;;1.00;;
22603;SDS011;11469;49.024;8.246;2022-12-28T08:47:52;3.85;;;1.25;;
22603;SDS011;11469;49.024;8.246;2022-12-28T08:50:18;2.10;;;0.90;;
22603;SDS011;11469;49.024;8.246;2022-12-28T08:52:44;3.35;;;0.70;;
22603;SDS011;11469;49.024;8.246;2022-12-28T08:55:09;2.58;;;0.70;;
22603;SDS011;11469;49.024;8.246;2022-12-28T08:57:35;3.10;;;1.25;;
22603;SDS011;11469;49.024;8.246;2022-12-28T09:00:00;6.82;;;1.33;;
22603;SDS011;11469;49.024;8.246;2022-12-28T09:02:26;2.25;;;0.80;;
22603;SDS011;11469;49.024;8.246;2022-12-28T09:04:51;3.10;;;0.90;;
22603;SDS011;11469;49.024;8.246;2022-12-28T09:07:16;2.72;;;1.02;;
22603;SDS011;11469;49.024;8.246;2022-12-28T09:09:42;5.45;;;1.08;;
22603;SDS011;11469;49.024;8.246;2022-12-28T09:12:07;3.83;;;1.08;;
22603;SDS011;11469;49.024;8.246;2022-12-28T09:14:32;4.93;;;1.25;;
22603;SDS011;11469;49.024;8.246;2022-12-28T09:16:58;3.53;;;1.10;;
22603;SDS011;11469;49.024;8.246;2022-12-28T09:19:26;1.83;;;0.85;;
22603;SDS011;11469;49.024;8.246;2022-12-28T09:21:51;10.93;;;0.95;;
22603;SDS011;11469;49.024;8.246;2022-12-28T09:24:17;3.95;;;1.00;;
22603;SDS011;11469;49.024;8.246;2022-12-28T09:26:42;4.78;;;1.35;;
22603;SDS011;11469;49.024;8.246;2022-12-28T09:29:10;3.88;;;0.80;;
22603;SDS011;11469;49.024;8.246;2022-12-28T09:31:36;3.58;;;0.98;;
22603;SDS011;11469;49.024;8.246;2022-12-28T09:34:06;2.50;;;0.95;;
22603;SDS011;11469;49.024;8.246;2022-12-28T09:36:39;3.58;;;0.73;;
22603;SDS011;11469;49.024;8.246;2022-12-28T09:39:09;1.73;;;0.80;;
22603;SDS011;11469;49.024;8.246;2022-12-28T09:42:05;2.95;;;0.70;;
22603;SDS011;11469;49.024;8.246;2022-12-28T09:47:24;4.28;;;1.27;;
22603;SDS011;11469;49.024;8.246;2022-12-28T09:50:03;5.45;;;0.95;;
22603;SDS011;11469;49.024;8.246;2022-12-28T09:55:38;3.40;;;0.93;;
22603;SDS011;11469;49.024;8.246;2022-12-28T09:58:11;2.50;;;0.80;;
22603;SDS011;11469;49.024;8.246;2022-12-28T10:00:49;7.85;;;1.67;;
22603;SDS011;11469;49.024;8.246;2022-12-28T10:03:22;7.43;;;1.17;;
22603;SDS011;11469;49.024;8.246;2022-12-28T10:05:56;5.38;;;1.30;;
22603;SDS011;11469;49.024;8.246;2022-12-28T10:08:22;3.95;;;1.00;;
22603;SDS011;11469;49.024;8.246;2022-12-28T10:10:50;7.22;;;1.10;;
22603;SDS011;11469;49.024;8.246;2022-12-28T10:13:18;1.85;;;0.80;;
22603;SDS011;11469;49.024;8.246;2022-12-28T10:15:45;2.55;;;1.23;;
22603;SDS011;11469;49.024;8.246;2022-12-28T10:18:14;3.53;;;1.10;;
22603;SDS011;11469;49.024;8.246;2022-12-28T10:20:45;3.77;;;1.53;;
22603;SDS011;11469;49.024;8.246;2022-12-28T10:23:12;2.00;;;0.73;;
22603;SDS011;11469;49.024;8.246;2022-12-28T10:25:41;4.28;;;1.00;;
22603;SDS011;11469;49.024;8.246;2022-12-28T10:28:07;1.77;;;0.95;;
22603;SDS011;11469;49.024;8.246;2022-12-28T10:30:43;1.60;;;0.60;;
22603;SDS011;11469;49.024;8.246;2022-12-28T10:33:14;1.92;;;0.80;;
22603;SDS011;11469;49.024;8.246;2022-12-28T10:35:50;6.32;;;1.23;;
22603;SDS011;11469;49.024;8.246;2022-12-28T10:38:31;4.65;;;1.05;;
22603;SDS011;11469;49.024;8.246;2022-12-28T10:40:59;4.78;;;2.25;;
22603;SDS011;11469;49.024;8.246;2022-12-28T10:43:31;37.97;;;19.73;;
22603;SDS011;11469;49.024;8.246;2022-12-28T10:45:59;19.63;;;8.48;;
22603;SDS011;11469;49.024;8.246;2022-12-28T10:48:28;8.07;;;2.40;;
22603;SDS011;11469;49.024;8.246;2022-12-28T10:53:25;4.18;;;0.82;;
22603;SDS011;11469;49.024;8.246;2022-12-28T10:56:16;6.00;;;0.90;;
22603;SDS011;11469;49.024;8.246;2022-12-28T10:58:46;5.90;;;0.88;;
22603;SDS011;11469;49.024;8.246;2022-12-28T11:03:42;5.28;;;1.50;;
22603;SDS011;11469;49.024;8.246;2022-12-28T11:06:19;3.83;;;1.20;;
22603;SDS011;11469;49.024;8.246;2022-12-28T11:11:41;4.00;;;1.10;;
22603;SDS011;11469;49.024;8.246;2022-12-28T11:17:08;3.97;;;1.20;;
22603;SDS011;11469;49.024;8.246;2022-12-28T11:19:41;6.22;;;1.17;;
22603;SDS011;11469;49.024;8.246;2022-12-28T11:22:10;4.28;;;1.08;;
22603;SDS011;11469;49.024;8.246;2022-12-28T11:24:40;2.03;;;0.75;;
22603;SDS011;11469;49.024;8.246;2022-12-28T11:27:05;5.07;;;1.23;;
22603;SDS011;11469;49.024;8.246;2022-12-28T11:29:43;4.47;;;1.23;;
22603;SDS011;11469;49.024;8.246;2022-12-28T11:32:15;5.80;;;1.17;;
22603;SDS011;11469;49.024;8.246;2022-12-28T11:34:45;6.43;;;0.93;;
22603;SDS011;11469;49.024;8.246;2022-12-28T11:37:12;2.75;;;1.17;;
22603;SDS011;11469;49.024;8.246;2022-12-28T11:39:42;6.45;;;1.23;;
22603;SDS011;11469;49.024;8.246;2022-12-28T11:42:10;3.35;;;0.95;;
22603;SDS011;11469;49.024;8.246;2022-12-28T11:44:56;6.18;;;1.10;;
22603;SDS011;11469;49.024;8.246;2022-12-28T11:47:23;3.22;;;1.08;;
22603;SDS011;11469;49.024;8.246;2022-12-28T11:52:57;5.28;;;1.10;;
22603;SDS011;11469;49.024;8.246;2022-12-28T11:57:48;4.88;;;1.00;;
22603;SDS011;11469;49.024;8.246;2022-12-28T12:08:00;4.30;;;0.93;;
22603;SDS011;11469;49.024;8.246;2022-12-28T12:10:35;4.07;;;1.40;;
22603;SDS011;11469;49.024;8.246;2022-12-28T12:13:35;5.25;;;1.25;;
22603;SDS011;11469;49.024;8.246;2022-12-28T12:15:51;8.23;;;1.40;;
22603;SDS011;11469;49.024;8.246;2022-12-28T12:18:24;4.63;;;1.38;;
22603;SDS011;11469;49.024;8.246;2022-12-28T12:20:59;7.60;;;1.02;;
22603;SDS011;11469;49.024;8.246;2022-12-28T12:26:13;4.18;;;0.98;;
22603;SDS011;11469;49.024;8.246;2022-12-28T12:28:47;4.38;;;1.17;;
22603;SDS011;11469;49.024;8.246;2022-12-28T12:31:17;8.35;;;1.30;;
22603;SDS011;11469;49.024;8.246;2022-12-28T12:33:49;4.20;;;1.17;;
22603;SDS011;11469;49.024;8.246;2022-12-28T12:44:18;2.75;;;1.17;;
22603;SDS011;11469;49.024;8.246;2022-12-28T12:49:47;3.33;;;1.05;;
22603;SDS011;11469;49.024;8.246;2022-12-28T13:03:49;3.45;;;1.15;;
22603;SDS011;11469;49.024;8.246;2022-12-28T13:06:16;4.03;;;1.20;;
22603;SDS011;11469;49.024;8.246;2022-12-28T13:08:47;4.55;;;1.77;;
22603;SDS011;11469;49.024;8.246;2022-12-28T13:11:16;2.88;;;1.10;;
22603;SDS011;11469;49.024;8.246;2022-12-28T13:13:44;5.10;;;1.55;;
22603;SDS011;11469;49.024;8.246;2022-12-28T13:16:16;2.42;;;1.00;;
22603;SDS011;11469;49.024;8.246;2022-12-28T13:19:00;7.25;;;1.42;;
22603;SDS011;11469;49.024;8.246;2022-12-28T13:21:48;4.55;;;1.10;;
22603;SDS011;11469;49.024;8.246;2022-12-28T13:24:23;6.47;;;1.52;;
22603;SDS011;11469;49.024;8.246;2022-12-28T13:26:53;5.47;;;1.27;;
22603;SDS011;11469;49.024;8.246;2022-12-28T13:29:23;3.60;;;1.10;;
22603;SDS011;11469;49.024;8.246;2022-12-28T13:31:56;7.07;;;1.30;;
22603;SDS011;11469;49.024;8.246;2022-12-28T13:34:28;18.40;;;6.47;;
22603;SDS011;11469;49.024;8.246;2022-12-28T13:37:16;11.90;;;4.22;;
22603;SDS011;11469;49.024;8.246;2022-12-28T13:39:41;30.45;;;6.68;;
22603;SDS011;11469;49.024;8.246;2022-12-28T13:42:22;6.05;;;1.70;;
22603;SDS011;11469;49.024;8.246;2022-12-28T13:44:56;1.52;;;0.80;;
22603;SDS011;11469;49.024;8.246;2022-12-28T13:47:28;4.60;;;1.92;;
22603;SDS011;11469;49.024;8.246;2022-12-28T13:52:35;3.35;;;1.63;;
22603;SDS011;11469;49.024;8.246;2022-12-28T13:55:05;3.90;;;1.67;;
22603;SDS011;11469;49.024;8.246;2022-12-28T13:57:34;6.22;;;1.73;;
22603;SDS011;11469;49.024;8.246;2022-12-28T14:00:02;6.40;;;1.73;;
22603;SDS011;11469;49.024;8.246;2022-12-28T14:02:28;3.17;;;1.20;;
22603;SDS011;11469;49.024;8.246;2022-12-28T14:04:54;3.47;;;1.45;;
22603;SDS011;11469;49.024;8.246;2022-12-28T14:07:20;2.13;;;1.00;;
22603;SDS011;11469;49.024;8.246;2022-12-28T14:09:50;3.08;;;1.08;;
22603;SDS011;11469;49.024;8.246;2022-12-28T14:12:16;4.20;;;1.02;;
22603;SDS011;11469;49.024;8.246;2022-12-28T14:14:43;4.53;;;2.03;;
22603;SDS011;11469;49.024;8.246;2022-12-28T14:17:09;3.28;;;1.00;;
22603;SDS011;11469;49.024;8.246;2022-12-28T14:19:35;5.38;;;0.98;;
22603;SDS011;11469;49.024;8.246;2022-12-28T14:22:01;1.92;;;0.85;;
22603;SDS011;11469;49.024;8.246;2022-12-28T14:24:26;3.88;;;1.17;;
22603;SDS011;11469;49.024;8.246;2022-12-28T14:26:52;5.63;;;1.00;;
22603;SDS011;11469;49.024;8.246;2022-12-28T14:29:26;8.95;;;1.55;;
22603;SDS011;11469;49.024;8.246;2022-12-28T14:31:56;1.50;;;0.82;;
22603;SDS011;11469;49.024;8.246;2022-12-28T14:34:25;1.33;;;0.70;;
22603;SDS011;11469;49.024;8.246;2022-12-28T14:36:53;5.13;;;0.82;;
22603;SDS011;11469;49.024;8.246;2022-12-28T14:39:41;3.58;;;1.35;;
22603;SDS011;11469;49.024;8.246;2022-12-28T14:42:24;9.02;;;2.55;;
22603;SDS011;11469;49.024;8.246;2022-12-28T14:44:51;4.05;;;1.83;;
22603;SDS011;11469;49.024;8.246;2022-12-28T14:47:32;4.38;;;1.20;;
22603;SDS011;11469;49.024;8.246;2022-12-28T14:50:03;5.75;;;1.23;;
22603;SDS011;11469;49.024;8.246;2022-12-28T14:52:41;3.92;;;1.00;;
22603;SDS011;11469;49.024;8.246;2022-12-28T14:57:54;3.45;;;1.00;;
22603;SDS011;11469;49.024;8.246;2022-12-28T15:02:51;4.20;;;1.20;;
22603;SDS011;11469;49.024;8.246;2022-12-28T15:05:35;5.03;;;1.15;;
22603;SDS011;11469;49.024;8.246;2022-12-28T15:08:06;1.50;;;0.90;;
22603;SDS011;11469;49.024;8.246;2022-12-28T15:10:33;3.88;;;1.00;;
22603;SDS011;11469;49.024;8.246;2022-12-28T15:13:20;7.88;;;1.55;;
22603;SDS011;11469;49.024;8.246;2022-12-28T15:15:53;3.85;;;1.20;;
22603;SDS011;11469;49.024;8.246;2022-12-28T15:18:19;3.40;;;1.52;;
22603;SDS011;11469;49.024;8.246;2022-12-28T15:20:44;8.00;;;2.72;;
22603;SDS011;11469;49.024;8.246;2022-12-28T15:23:10;5.28;;;1.73;;
22603;SDS011;11469;49.024;8.246;2022-12-28T15:25:35;3.50;;;1.58;;
22603;SDS011;11469;49.024;8.246;2022-12-28T15:28:01;3.42;;;1.13;;
22603;SDS011;11469;49.024;8.246;2022-12-28T15:30:27;2.63;;;1.02;;
22603;SDS011;11469;49.024;8.246;2022-12-28T15:32:53;4.50;;;1.20;;
22603;SDS011;11469;49.024;8.246;2022-12-28T15:35:18;1.17;;;0.80;;
22603;SDS011;11469;49.024;8.246;2022-12-28T15:37:44;4.07;;;1.77;;
22603;SDS011;11469;49.024;8.246;2022-12-28T15:40:10;2.72;;;1.20;;
22603;SDS011;11469;49.024;8.246;2022-12-28T15:42:35;4.25;;;1.30;;
22603;SDS011;11469;49.024;8.246;2022-12-28T15:45:02;4.55;;;1.95;;
22603;SDS011;11469;49.024;8.246;2022-12-28T15:47:27;7.45;;;1.35;;
22603;SDS011;11469;49.024;8.246;2022-12-28T15:49:53;3.40;;;1.40;;
22603;SDS011;11469;49.024;8.246;2022-12-28T15:52:18;5.45;;;1.42;;
22603;SDS011;11469;49.024;8.246;2022-12-28T15:54:43;2.08;;;0.98;;
22603;SDS011;11469;49.024;8.246;2022-12-28T15:57:09;3.05;;;1.20;;
22603;SDS011;11469;49.024;8.246;2022-12-28T15:59:36;5.40;;;1.63;;
22603;SDS011;11469;49.024;8.246;2022-12-28T16:02:02;3.17;;;1.15;;
22603;SDS011;11469;49.024;8.246;2022-12-28T16:04:27;3.88;;;1.50;;
22603;SDS011;11469;49.024;8.246;2022-12-28T16:06:53;9.27;;;3.45;;
22603;SDS011;11469;49.024;8.246;2022-12-28T16:09:18;10.60;;;4.13;;
22603;SDS011;11469;49.024;8.246;2022-12-28T16:11:43;6.10;;;2.05;;
22603;SDS011;11469;49.024;8.246;2022-12-28T16:14:13;6.38;;;1.83;;
22603;SDS011;11469;49.024;8.246;2022-12-28T16:16:39;5.00;;;2.20;;
22603;SDS011;11469;49.024;8.246;2022-12-28T16:19:05;3.50;;;1.20;;
22603;SDS011;11469;49.024;8.246;2022-12-28T16:21:31;1.90;;;1.08;;
22603;SDS011;11469;49.024;8.246;2022-12-28T16:23:57;3.60;;;1.27;;
22603;SDS011;11469;49.024;8.246;2022-12-28T16:26:23;3.13;;;1.10;;
22603;SDS011;11469;49.024;8.246;2022-12-28T16:28:49;3.40;;;1.75;;